Coates, United Kingdom
Current Conditions -  °F | °C
As of 3:58 AM on Wednesday 22 Oct 2014 (Local Time) from EGVA Reporting Station
Clear Clear  
Wind Chill:   Ceiling: Unl
Heat Index:   Visibility: 6mi
Dew Point:   Wind: 7mph
Humidity: 89%   Direction: 220°SW
Pressure: 30.24"   Gusts: NA
Location:  51.71°N, 2.03°W
Report Text: EGVA 220258Z AUTO 22006KT 9999 CLR 04/03 A3024 RMK AO2 SLP246 P2375 66939 T00430026 51015
Loading
Personal Weather Stations






























Interactive Weather Map
Tropical Storm Tracking
New forecast layout! Learn more

10-Day Weather Forecast

Advertisements
Track Severe Weather on mobile